createdAt,value
2023-04-27T00:02:41.845Z,55.58
2023-04-27T00:06:44.882Z,55.53
2023-04-27T00:10:49.324Z,55.62
2023-04-27T00:14:52.662Z,55.20
2023-04-27T00:18:55.857Z,55.55
2023-04-27T00:22:58.925Z,55.34
2023-04-27T00:27:03.360Z,55.59
2023-04-27T00:31:06.589Z,55.55
2023-04-27T00:35:10.575Z,55.96
2023-04-27T00:39:13.707Z,55.99
2023-04-27T00:43:18.280Z,55.97
2023-04-27T00:47:21.621Z,56.10
2023-04-27T00:51:28.162Z,56.05
2023-04-27T00:55:31.705Z,55.86
2023-04-27T00:59:36.206Z,55.75
2023-04-27T01:03:39.426Z,55.61
2023-04-27T01:07:43.827Z,55.61
2023-04-27T01:11:46.905Z,55.50
2023-04-27T01:15:51.686Z,55.26
2023-04-27T01:19:56.798Z,55.26
2023-04-27T01:24:01.264Z,55.29
2023-04-27T01:28:04.231Z,55.12
2023-04-27T01:32:07.572Z,55.23
2023-04-27T01:36:11.743Z,54.94
2023-04-27T01:40:16.759Z,54.69
2023-04-27T01:44:21.161Z,55.05
2023-04-27T01:48:24.339Z,55.00
2023-04-27T01:52:27.397Z,55.34
2023-04-27T01:56:33.234Z,55.83
2023-04-27T02:00:36.239Z,55.65
2023-04-27T02:04:39.386Z,55.90
2023-04-27T02:08:42.531Z,56.27
2023-04-27T02:12:46.955Z,56.72
2023-04-27T02:16:51.378Z,56.94
2023-04-27T02:20:54.437Z,56.97
2023-04-27T02:24:57.387Z,57.23
2023-04-27T02:29:03.446Z,57.39
2023-04-27T02:33:07.172Z,57.42
2023-04-27T02:37:10.418Z,57.33
2023-04-27T02:41:13.455Z,57.78
2023-04-27T02:45:18.148Z,57.77
2023-04-27T02:49:21.116Z,57.68
2023-04-27T02:53:24.590Z,58.00
2023-04-27T02:57:28.856Z,58.08
2023-04-27T03:01:33.462Z,58.06
2023-04-27T03:05:37.245Z,58.29
2023-04-27T03:09:40.462Z,58.62
2023-04-27T03:13:43.456Z,58.80
2023-04-27T03:17:48.394Z,58.84
2023-04-27T03:21:51.409Z,59.23
2023-04-27T03:25:54.565Z,59.22
2023-04-27T03:29:57.668Z,59.29
2023-04-27T03:34:02.299Z,59.45
2023-04-27T03:38:05.285Z,59.38
2023-04-27T03:42:08.441Z,59.67
2023-04-27T03:46:11.493Z,59.83
2023-04-27T03:50:16.353Z,59.77
2023-04-27T03:54:19.405Z,59.71
2023-04-27T03:58:22.521Z,59.72
2023-04-27T04:02:44.049Z,59.89
2023-04-27T04:06:49.041Z,60.37
2023-04-27T04:10:52.022Z,60.56
2023-04-27T04:14:55.370Z,60.75
2023-04-27T04:18:59.223Z,60.85
2023-04-27T04:23:03.814Z,61.13
2023-04-27T04:27:06.946Z,61.00
2023-04-27T04:31:10.047Z,61.33
2023-04-27T04:35:13.328Z,61.55
2023-04-27T04:39:17.946Z,61.69
2023-04-27T04:43:21.504Z,61.90
2023-04-27T04:47:24.867Z,61.96
2023-04-27T04:51:28.579Z,62.32
2023-04-27T04:55:33.066Z,62.33
2023-04-27T04:59:39.641Z,62.63
2023-04-27T05:03:42.926Z,62.95
2023-04-27T05:07:46.115Z,62.70
2023-04-27T05:11:50.612Z,62.41
2023-04-27T05:15:54.040Z,62.40
2023-04-27T05:19:58.274Z,61.66
2023-04-27T05:24:01.566Z,61.01
2023-04-27T05:28:06.272Z,60.62
2023-04-27T05:32:09.669Z,60.26
2023-04-27T05:36:12.906Z,59.68
2023-04-27T05:40:16.604Z,59.46
2023-04-27T05:44:21.188Z,59.49
2023-04-27T05:48:24.205Z,58.61
2023-04-27T05:52:31.102Z,58.14
2023-04-27T05:56:34.200Z,56.96
2023-04-27T06:00:38.914Z,56.20
2023-04-27T06:04:41.922Z,55.46
2023-04-27T06:08:45.076Z,54.41
2023-04-27T06:12:48.061Z,53.80
2023-04-27T06:16:52.516Z,53.72
2023-04-27T06:21:01.195Z,53.42
2023-04-27T06:25:04.727Z,52.85
2023-04-27T06:29:08.453Z,53.39
2023-04-27T06:33:12.945Z,53.21
2023-04-27T06:37:17.263Z,53.24
2023-04-27T06:41:20.333Z,52.59
2023-04-27T06:45:23.412Z,51.74
2023-04-27T06:49:27.969Z,51.48
2023-04-27T06:53:32.239Z,51.13
2023-04-27T06:57:35.297Z,51.00
2023-04-27T07:01:38.608Z,50.44
2023-04-27T07:05:43.246Z,50.91
2023-04-27T07:09:46.530Z,50.75
2023-04-27T07:13:49.625Z,50.37
2023-04-27T07:17:54.092Z,49.69
2023-04-27T07:21:58.986Z,48.31
2023-04-27T07:26:02.615Z,48.79
2023-04-27T07:30:08.913Z,48.91
2023-04-27T07:34:12.441Z,48.04
2023-04-27T07:38:17.515Z,47.20
2023-04-27T07:42:22.323Z,46.50
2023-04-27T07:46:26.457Z,45.76
2023-04-27T07:50:30.226Z,46.28
2023-04-27T07:54:34.712Z,46.16
2023-04-27T07:58:38.012Z,45.46
2023-04-27T08:02:41.318Z,45.05
2023-04-27T08:06:46.778Z,44.99
2023-04-27T08:10:51.597Z,44.11
2023-04-27T08:14:54.557Z,44.01
2023-04-27T08:18:58.615Z,43.63
2023-04-27T08:23:03.223Z,43.34
2023-04-27T08:27:08.528Z,42.85
2023-04-27T08:31:11.591Z,41.91
2023-04-27T08:35:14.851Z,42.02
2023-04-27T08:39:18.315Z,41.34
2023-04-27T08:43:23.049Z,41.36
2023-04-27T08:47:35.160Z,42.41
2023-04-27T08:51:45.070Z,42.21
2023-04-27T08:55:48.196Z,41.17
2023-04-27T09:00:01.046Z,41.91
2023-04-27T09:04:06.293Z,41.84
2023-04-27T09:08:10.819Z,40.63
2023-04-27T09:12:19.004Z,40.53
2023-04-27T09:16:26.544Z,41.24
2023-04-27T09:20:29.656Z,40.07
2023-04-27T09:24:32.971Z,40.44
2023-04-27T09:28:39.717Z,39.63
2023-04-27T09:32:54.656Z,39.99
2023-04-27T09:36:58.148Z,40.07
2023-04-27T09:41:01.831Z,39.32
2023-04-27T09:45:07.967Z,38.95
2023-04-27T09:49:14.567Z,38.64
2023-04-27T09:53:23.144Z,39.07
2023-04-27T09:57:36.449Z,39.62
2023-04-27T10:01:45.016Z,39.98
2023-04-27T10:06:32.429Z,39.41
2023-04-27T10:10:44.355Z,39.80
2023-04-27T10:14:52.150Z,39.20
2023-04-27T10:18:56.416Z,38.29
2023-04-27T10:23:01.807Z,38.05
2023-04-27T10:27:07.875Z,37.88
2023-04-27T10:31:12.131Z,37.97
2023-04-27T10:35:15.206Z,38.63
2023-04-27T10:39:29.825Z,37.39
2023-04-27T10:43:39.076Z,37.31
2023-04-27T10:47:43.788Z,37.47
2023-04-27T10:51:47.689Z,37.86
2023-04-27T10:55:56.517Z,37.84
2023-04-27T11:04:18.675Z,37.65
2023-04-27T11:08:22.077Z,36.91
2023-04-27T11:12:25.180Z,36.83
2023-04-27T11:16:29.637Z,37.51
2023-04-27T11:20:35.250Z,37.55
2023-04-27T11:24:38.597Z,36.91
2023-04-27T11:28:42.385Z,37.19
2023-04-27T11:32:45.407Z,37.70
2023-04-27T11:37:14.335Z,38.31
2023-04-27T11:41:20.200Z,38.55
2023-04-27T11:45:27.515Z,38.08
2023-04-27T11:49:30.579Z,37.56
2023-04-27T11:53:36.551Z,36.97
2023-04-27T11:57:40.441Z,37.34
2023-04-27T12:01:43.564Z,37.62
2023-04-27T12:05:50.345Z,37.41
2023-04-27T12:09:54.811Z,37.13
2023-04-27T12:13:58.669Z,36.58
2023-04-27T12:18:01.766Z,37.22
2023-04-27T12:22:05.417Z,37.70
2023-04-27T12:26:09.927Z,36.45
2023-04-27T12:30:13.567Z,35.74
2023-04-27T12:34:16.958Z,36.15
2023-04-27T12:38:20.060Z,36.15
2023-04-27T12:42:24.945Z,35.58
2023-04-27T12:46:28.105Z,35.25
2023-04-27T12:50:31.902Z,36.34
2023-04-27T12:54:34.997Z,36.14
2023-04-27T12:58:40.015Z,37.29
2023-04-27T13:02:43.485Z,36.39
2023-04-27T13:06:46.924Z,36.64
2023-04-27T13:10:50.025Z,36.85
2023-04-27T13:14:54.470Z,36.06
2023-04-27T13:18:57.612Z,36.05
2023-04-27T13:23:01.050Z,35.54
2023-04-27T13:27:04.290Z,35.30
2023-04-27T13:31:08.761Z,35.40
2023-04-27T13:35:12.380Z,35.12
2023-04-27T13:39:18.460Z,35.50
2023-04-27T13:43:21.931Z,35.15
2023-04-27T13:47:26.439Z,34.89
2023-04-27T13:51:29.799Z,35.40
2023-04-27T13:55:32.854Z,35.70
2023-04-27T13:59:36.019Z,35.53
2023-04-27T14:03:42.682Z,35.57
2023-04-27T14:07:47.045Z,35.37
2023-04-27T14:11:57.096Z,35.88
2023-04-27T14:16:00.492Z,35.31
2023-04-27T14:20:06.961Z,36.85
2023-04-27T14:24:10.029Z,36.08
2023-04-27T14:28:14.730Z,35.19
2023-04-27T14:32:18.096Z,34.81
2023-04-27T14:36:22.506Z,35.34
2023-04-27T14:40:25.742Z,35.62
2023-04-27T14:44:29.143Z,34.64
2023-04-27T14:48:32.952Z,33.56
2023-04-27T14:52:37.334Z,34.36
2023-04-27T14:56:40.434Z,34.27
2023-04-27T15:00:43.607Z,34.83
2023-04-27T15:04:46.920Z,33.71
2023-04-27T15:08:51.413Z,34.14
2023-04-27T15:12:54.504Z,35.41
2023-04-27T15:16:57.500Z,35.97
2023-04-27T15:21:00.987Z,35.79
2023-04-27T15:25:06.176Z,34.71
2023-04-27T15:29:09.208Z,34.99
2023-04-27T15:33:12.466Z,35.11
2023-04-27T15:37:15.543Z,35.71
2023-04-27T15:41:20.164Z,35.24
2023-04-27T15:45:23.587Z,35.29
2023-04-27T15:49:26.611Z,35.56
2023-04-27T15:53:29.615Z,35.70
2023-04-27T15:57:34.006Z,35.71
2023-04-27T16:01:37.297Z,35.60
2023-04-27T16:05:40.913Z,35.78
2023-04-27T16:09:44.009Z,35.15
2023-04-27T16:13:48.430Z,35.21
2023-04-27T16:17:51.472Z,35.10
2023-04-27T16:21:54.627Z,35.69
2023-04-27T16:25:57.671Z,35.74
2023-04-27T16:30:02.152Z,36.28
2023-04-27T16:34:05.351Z,36.28
2023-04-27T16:38:08.511Z,36.42
2023-04-27T16:42:13.326Z,36.48
2023-04-27T16:46:18.377Z,36.31
2023-04-27T16:50:21.493Z,35.98
2023-04-27T16:54:24.543Z,36.09
2023-04-27T16:58:27.582Z,36.24
2023-04-27T17:02:32.309Z,36.41
2023-04-27T17:06:35.858Z,36.36
2023-04-27T17:10:38.882Z,36.69
2023-04-27T17:14:42.484Z,36.98
2023-04-27T17:18:47.487Z,37.00
2023-04-27T17:22:50.865Z,37.50
2023-04-27T17:26:54.043Z,37.42
2023-04-27T17:30:57.606Z,37.67
2023-04-27T17:35:02.067Z,38.08
2023-04-27T17:39:05.925Z,38.24
2023-04-27T17:43:09.335Z,38.26
2023-04-27T17:47:13.742Z,38.13
2023-04-27T17:51:18.541Z,38.30
2023-04-27T17:55:22.020Z,38.57
2023-04-27T17:59:25.657Z,38.56
2023-04-27T18:03:29.101Z,38.87
2023-04-27T18:07:36.394Z,39.39
2023-04-27T18:11:39.454Z,39.59
2023-04-27T18:15:42.496Z,39.71
2023-04-27T18:19:46.074Z,40.23
2023-04-27T18:23:50.511Z,40.11
2023-04-27T18:27:55.543Z,40.63
2023-04-27T18:32:01.751Z,40.81
2023-04-27T18:36:05.183Z,41.12
2023-04-27T18:40:11.139Z,40.94
2023-04-27T18:44:15.373Z,41.29
2023-04-27T18:48:18.868Z,41.35
2023-04-27T18:52:22.033Z,41.56
2023-04-27T18:56:26.506Z,41.73
2023-04-27T19:00:30.854Z,42.01
2023-04-27T19:04:34.618Z,42.12
2023-04-27T19:08:37.789Z,42.19
2023-04-27T19:12:42.194Z,42.45
2023-04-27T19:16:45.381Z,42.50
2023-04-27T19:20:49.376Z,42.70
2023-04-27T19:24:53.061Z,42.98
2023-04-27T19:28:57.441Z,43.29
2023-04-27T19:33:00.610Z,43.47
2023-04-27T19:37:10.230Z,43.45
2023-04-27T19:41:20.986Z,43.60
2023-04-27T19:45:25.661Z,43.94
2023-04-27T19:49:32.705Z,44.03
2023-04-27T19:53:35.856Z,44.51
2023-04-27T19:57:38.931Z,45.19
2023-04-27T20:01:43.462Z,44.89
2023-04-27T20:05:47.393Z,44.84
2023-04-27T20:09:50.525Z,45.14
2023-04-27T20:13:53.585Z,45.24
2023-04-27T20:17:58.015Z,45.18
2023-04-27T20:22:02.990Z,44.81
2023-04-27T20:26:06.490Z,44.95
2023-04-27T20:30:10.587Z,45.20
2023-04-27T20:34:15.272Z,44.95
2023-04-27T20:38:18.457Z,45.35
2023-04-27T20:42:21.933Z,45.59
2023-04-27T20:46:25.173Z,45.47
2023-04-27T20:50:29.790Z,45.85
2023-04-27T20:54:33.024Z,45.92
2023-04-27T20:58:36.208Z,45.95
2023-04-27T21:02:39.294Z,46.19
2023-04-27T21:06:43.788Z,46.02
2023-04-27T21:10:46.884Z,45.99
2023-04-27T21:14:49.898Z,46.36
2023-04-27T21:18:52.917Z,46.67
2023-04-27T21:22:57.381Z,46.89
2023-04-27T21:27:00.465Z,47.18
2023-04-27T21:31:03.591Z,47.47
2023-04-27T21:35:07.753Z,47.76
2023-04-27T21:39:12.234Z,47.39
2023-04-27T21:43:15.287Z,47.63
2023-04-27T21:47:18.476Z,47.49
2023-04-27T21:51:21.715Z,47.93
2023-04-27T21:55:26.178Z,48.03
2023-04-27T21:59:29.317Z,48.23
2023-04-27T22:03:32.784Z,48.25
2023-04-27T22:07:36.350Z,48.29
2023-04-27T22:11:41.257Z,48.38
2023-04-27T22:15:44.382Z,48.33
2023-04-27T22:19:47.428Z,48.25
2023-04-27T22:23:50.530Z,48.34
2023-04-27T22:27:54.910Z,48.38
2023-04-27T22:31:58.487Z,48.86
2023-04-27T22:36:02.231Z,49.23
2023-04-27T22:40:08.730Z,49.28
2023-04-27T22:44:13.290Z,49.59
2023-04-27T22:48:16.923Z,49.77
2023-04-27T22:52:20.186Z,50.08
2023-04-27T22:56:23.486Z,50.24
2023-04-27T23:00:27.941Z,50.30
2023-04-27T23:04:30.987Z,50.49
2023-04-27T23:08:34.062Z,50.57
2023-04-27T23:12:37.780Z,50.63
2023-04-27T23:16:42.281Z,50.72
2023-04-27T23:20:45.380Z,50.89
2023-04-27T23:24:48.427Z,50.72
2023-04-27T23:28:51.978Z,50.75
2023-04-27T23:32:56.515Z,50.75
2023-04-27T23:37:00.117Z,50.79
2023-04-27T23:41:03.127Z,50.92
2023-04-27T23:45:06.915Z,51.12
2023-04-27T23:49:11.494Z,51.40
2023-04-27T23:53:14.768Z,51.83
2023-04-27T23:57:17.844Z,52.17
